Flight Number: AVA6167 Duration: 7:00
Departure: Madrid / Barajas (LEMD) at 16:00 Distance: 3050 Nm
Arrival: Dubai Intl Airport (OMDB) at 23:00 Equipment: B777

Weather Information
Madrid / Barajas, Spain (LEMD) 40-27N 003-33W 582M May 25, 2024 - 11:00 PM EDT / 2024.05.26 0300 UTC
Wind: from the NNW (340 degrees) at 2 MPH (2 KT):0
Visibility: greater than 7 mile(s):0 Temperature: 51 F (11 C) Dew Point: 37 F (3 C) Relative Humidity: 57% Pressure (altimeter): 30.03 in. Hg (1017 hPa)
ob: LEMD 260300Z 34002KT CAVOK 11/03 Q1017 NOSIG cycle: 3
Sunrise: 04:51 Sunset: 19:30 (UTC)

Dubai International Airport, United Arab Emirates (OMDB) 25-15N 055-20E 5M May 25, 2024 - 11:00 PM EDT / 2024.05.26 0300 UTC
Wind: from the SSW (200 degrees) at 6 MPH (5 KT):0
Visibility: greater than 7 mile(s):0 Temperature: 84 F (29 C) Dew Point: 73 F (23 C) Relative Humidity: 70% Pressure (altimeter): 29.59 in. Hg (1002 hPa)
ob: OMDB 260300Z 20005KT CAVOK 29/23 Q1002 NOSIG cycle: 3
Sunrise: 01:32 Sunset: 14:59 (UTC)

TAF:2024/05/25 18:00 TAF OMDB 251700Z 2518/2700 18005KT 8000 NSC PROB30 2600/2604 3000 BR BECMG 2607/2609 33012KT BECMG 2616/2618 14005KT

This route has never been flown.

Route map